sensor_id;sensor_type;location;lat;lon;timestamp;temperature;humidity
53053;DHT22;38934;52.690;6.184;2022-12-29T00:02:07;9.80;99.90
53053;DHT22;38934;52.690;6.184;2022-12-29T00:04:33;9.80;99.90
53053;DHT22;38934;52.690;6.184;2022-12-29T00:06:59;9.90;99.90
53053;DHT22;38934;52.690;6.184;2022-12-29T00:09:25;10.60;99.90
53053;DHT22;38934;52.690;6.184;2022-12-29T00:11:52;9.80;99.90
53053;DHT22;38934;52.690;6.184;2022-12-29T00:14:24;9.80;99.90
53053;DHT22;38934;52.690;6.184;2022-12-29T00:17:11;10.60;99.90
53053;DHT22;38934;52.690;6.184;2022-12-29T00:19:37;9.80;99.90
53053;DHT22;38934;52.690;6.184;2022-12-29T00:22:21;9.90;99.90
53053;DHT22;38934;52.690;6.184;2022-12-29T00:25:13;9.90;99.90
53053;DHT22;38934;52.690;6.184;2022-12-29T00:27:58;10.00;99.90
53053;DHT22;38934;52.690;6.184;2022-12-29T00:30:43;9.90;99.90
53053;DHT22;38934;52.690;6.184;2022-12-29T00:33:34;9.90;99.90
53053;DHT22;38934;52.690;6.184;2022-12-29T00:36:27;9.90;99.90
53053;DHT22;38934;52.690;6.184;2022-12-29T00:39:01;10.00;99.90
53053;DHT22;38934;52.690;6.184;2022-12-29T00:41:52;10.00;99.90
53053;DHT22;38934;52.690;6.184;2022-12-29T00:44:36;10.00;99.90
53053;DHT22;38934;52.690;6.184;2022-12-29T00:47:02;10.10;99.90
53053;DHT22;38934;52.690;6.184;2022-12-29T00:49:30;10.00;99.90
53053;DHT22;38934;52.690;6.184;2022-12-29T00:52:07;10.00;99.90
53053;DHT22;38934;52.690;6.184;2022-12-29T00:54:36;10.00;99.90
53053;DHT22;38934;52.690;6.184;2022-12-29T00:57:03;10.00;99.90
53053;DHT22;38934;52.690;6.184;2022-12-29T00:59:31;10.30;99.90
53053;DHT22;38934;52.690;6.184;2022-12-29T01:02:02;10.00;99.90
53053;DHT22;38934;52.690;6.184;2022-12-29T01:04:31;10.00;99.90
53053;DHT22;38934;52.690;6.184;2022-12-29T01:06:59;10.10;99.90
53053;DHT22;38934;52.690;6.184;2022-12-29T01:09:27;10.20;99.90
53053;DHT22;38934;52.690;6.184;2022-12-29T01:12:14;10.10;99.90
53053;DHT22;38934;52.690;6.184;2022-12-29T01:14:40;10.10;99.90
53053;DHT22;38934;52.690;6.184;2022-12-29T01:17:06;10.10;99.90
53053;DHT22;38934;52.690;6.184;2022-12-29T01:19:31;10.60;99.90
53053;DHT22;38934;52.690;6.184;2022-12-29T01:21:57;10.20;99.90
53053;DHT22;38934;52.690;6.184;2022-12-29T01:24:23;10.20;99.90
53053;DHT22;38934;52.690;6.184;2022-12-29T01:26:49;10.30;99.90
53053;DHT22;38934;52.690;6.184;2022-12-29T01:29:17;10.30;99.90
53053;DHT22;38934;52.690;6.184;2022-12-29T01:31:42;10.30;99.90
53053;DHT22;38934;52.690;6.184;2022-12-29T01:34:20;10.30;99.90
53053;DHT22;38934;52.690;6.184;2022-12-29T01:36:46;10.30;99.90
53053;DHT22;38934;52.690;6.184;2022-12-29T01:39:12;11.10;99.90
53053;DHT22;38934;52.690;6.184;2022-12-29T01:41:38;10.30;99.90
53053;DHT22;38934;52.690;6.184;2022-12-29T01:44:42;10.40;99.90
53053;DHT22;38934;52.690;6.184;2022-12-29T01:49:54;10.70;99.90
53053;DHT22;38934;52.690;6.184;2022-12-29T01:52:24;10.30;99.90
53053;DHT22;38934;52.690;6.184;2022-12-29T01:55:01;11.10;99.90
53053;DHT22;38934;52.690;6.184;2022-12-29T01:57:38;10.40;99.90
53053;DHT22;38934;52.690;6.184;2022-12-29T02:00:08;10.40;99.90
53053;DHT22;38934;52.690;6.184;2022-12-29T02:02:52;10.40;99.90
53053;DHT22;38934;52.690;6.184;2022-12-29T02:05:50;10.40;99.90
53053;DHT22;38934;52.690;6.184;2022-12-29T02:08:20;10.40;99.90
53053;DHT22;38934;52.690;6.184;2022-12-29T02:10:47;10.60;99.90
53053;DHT22;38934;52.690;6.184;2022-12-29T02:13:17;10.40;99.90
53053;DHT22;38934;52.690;6.184;2022-12-29T02:18:56;10.40;99.90
53053;DHT22;38934;52.690;6.184;2022-12-29T02:28:01;10.30;99.90
53053;DHT22;38934;52.690;6.184;2022-12-29T02:39:15;10.20;99.90
53053;DHT22;38934;52.690;6.184;2022-12-29T02:42:00;10.30;99.90
53053;DHT22;38934;52.690;6.184;2022-12-29T02:44:51;10.20;99.90
53053;DHT22;38934;52.690;6.184;2022-12-29T02:53:02;10.10;99.90
53053;DHT22;38934;52.690;6.184;2022-12-29T02:55:33;10.50;99.90
53053;DHT22;38934;52.690;6.184;2022-12-29T02:58:19;10.40;99.90
53053;DHT22;38934;52.690;6.184;2022-12-29T03:11:41;10.00;99.90
53053;DHT22;38934;52.690;6.184;2022-12-29T03:15:04;10.00;99.90
53053;DHT22;38934;52.690;6.184;2022-12-29T03:18:06;10.00;99.90
53053;DHT22;38934;52.690;6.184;2022-12-29T03:20:39;10.10;99.90
53053;DHT22;38934;52.690;6.184;2022-12-29T03:23:07;10.10;99.90
53053;DHT22;38934;52.690;6.184;2022-12-29T03:25:40;10.10;99.90
53053;DHT22;38934;52.690;6.184;2022-12-29T03:28:21;11.00;99.90
53053;DHT22;38934;52.690;6.184;2022-12-29T03:30:48;10.20;99.90
53053;DHT22;38934;52.690;6.184;2022-12-29T03:33:18;10.50;99.90
53053;DHT22;38934;52.690;6.184;2022-12-29T03:35:50;10.30;99.90
53053;DHT22;38934;52.690;6.184;2022-12-29T03:38:25;10.60;99.90
53053;DHT22;38934;52.690;6.184;2022-12-29T03:40:58;10.20;99.90
53053;DHT22;38934;52.690;6.184;2022-12-29T03:43:25;10.20;99.90
53053;DHT22;38934;52.690;6.184;2022-12-29T03:45:52;10.10;99.90
53053;DHT22;38934;52.690;6.184;2022-12-29T03:48:18;10.00;99.90
53053;DHT22;38934;52.690;6.184;2022-12-29T03:50:43;10.30;99.90
53053;DHT22;38934;52.690;6.184;2022-12-29T03:53:11;9.80;99.90
53053;DHT22;38934;52.690;6.184;2022-12-29T03:55:37;9.70;99.90
53053;DHT22;38934;52.690;6.184;2022-12-29T03:58:02;10.60;99.90
53053;DHT22;38934;52.690;6.184;2022-12-29T04:00:32;9.60;99.90
53053;DHT22;38934;52.690;6.184;2022-12-29T04:03:00;9.60;99.90
53053;DHT22;38934;52.690;6.184;2022-12-29T04:05:26;9.70;99.90
53053;DHT22;38934;52.690;6.184;2022-12-29T04:07:55;9.50;99.90
53053;DHT22;38934;52.690;6.184;2022-12-29T04:10:23;9.50;99.90
53053;DHT22;38934;52.690;6.184;2022-12-29T04:12:49;9.60;99.90
53053;DHT22;38934;52.690;6.184;2022-12-29T04:15:15;9.50;99.90
53053;DHT22;38934;52.690;6.184;2022-12-29T04:17:42;9.70;99.90
53053;DHT22;38934;52.690;6.184;2022-12-29T04:20:13;9.50;99.90
53053;DHT22;38934;52.690;6.184;2022-12-29T04:23:01;9.50;99.90
53053;DHT22;38934;52.690;6.184;2022-12-29T04:25:27;10.00;99.90
53053;DHT22;38934;52.690;6.184;2022-12-29T04:27:53;9.20;99.90
53053;DHT22;38934;52.690;6.184;2022-12-29T04:30:19;9.40;99.90
53053;DHT22;38934;52.690;6.184;2022-12-29T04:32:45;9.90;99.90
53053;DHT22;38934;52.690;6.184;2022-12-29T04:35:11;9.60;99.90
53053;DHT22;38934;52.690;6.184;2022-12-29T04:37:39;9.40;99.90
53053;DHT22;38934;52.690;6.184;2022-12-29T04:40:05;10.10;99.90
53053;DHT22;38934;52.690;6.184;2022-12-29T04:42:33;9.40;99.90
53053;DHT22;38934;52.690;6.184;2022-12-29T04:44:59;10.00;99.90
53053;DHT22;38934;52.690;6.184;2022-12-29T04:47:30;9.40;99.90
53053;DHT22;38934;52.690;6.184;2022-12-29T04:49:56;9.40;99.90
53053;DHT22;38934;52.690;6.184;2022-12-29T04:52:24;10.10;99.90
53053;DHT22;38934;52.690;6.184;2022-12-29T04:54:49;9.40;99.90
53053;DHT22;38934;52.690;6.184;2022-12-29T04:57:15;9.50;99.90
53053;DHT22;38934;52.690;6.184;2022-12-29T04:59:41;9.30;99.90
53053;DHT22;38934;52.690;6.184;2022-12-29T05:02:08;9.30;99.90
53053;DHT22;38934;52.690;6.184;2022-12-29T05:04:36;9.50;99.90
53053;DHT22;38934;52.690;6.184;2022-12-29T05:07:02;9.40;99.90
53053;DHT22;38934;52.690;6.184;2022-12-29T05:09:29;9.50;99.90
53053;DHT22;38934;52.690;6.184;2022-12-29T05:11:55;9.30;99.90
53053;DHT22;38934;52.690;6.184;2022-12-29T05:14:21;9.30;99.90
53053;DHT22;38934;52.690;6.184;2022-12-29T05:16:49;9.30;99.90
53053;DHT22;38934;52.690;6.184;2022-12-29T05:19:14;9.20;99.90
53053;DHT22;38934;52.690;6.184;2022-12-29T05:21:42;9.20;99.90
53053;DHT22;38934;52.690;6.184;2022-12-29T05:24:14;9.20;99.90
53053;DHT22;38934;52.690;6.184;2022-12-29T05:26:40;9.20;99.90
53053;DHT22;38934;52.690;6.184;2022-12-29T05:29:06;9.20;99.90
53053;DHT22;38934;52.690;6.184;2022-12-29T05:31:32;9.30;99.90
53053;DHT22;38934;52.690;6.184;2022-12-29T05:33:58;9.20;99.90
53053;DHT22;38934;52.690;6.184;2022-12-29T05:36:23;9.30;99.90
53053;DHT22;38934;52.690;6.184;2022-12-29T05:38:51;9.30;99.90
53053;DHT22;38934;52.690;6.184;2022-12-29T05:41:17;9.30;99.90
53053;DHT22;38934;52.690;6.184;2022-12-29T05:43:42;9.50;99.90
53053;DHT22;38934;52.690;6.184;2022-12-29T05:46:10;9.30;99.90
53053;DHT22;38934;52.690;6.184;2022-12-29T05:48:36;9.30;99.90
53053;DHT22;38934;52.690;6.184;2022-12-29T05:51:01;9.80;99.90
53053;DHT22;38934;52.690;6.184;2022-12-29T05:53:27;9.20;99.90
53053;DHT22;38934;52.690;6.184;2022-12-29T05:55:54;9.10;99.90
53053;DHT22;38934;52.690;6.184;2022-12-29T05:58:20;9.10;99.90
53053;DHT22;38934;52.690;6.184;2022-12-29T06:00:45;9.00;99.90
53053;DHT22;38934;52.690;6.184;2022-12-29T06:03:18;9.00;99.90
53053;DHT22;38934;52.690;6.184;2022-12-29T06:05:47;9.80;99.90
53053;DHT22;38934;52.690;6.184;2022-12-29T06:08:12;9.30;99.90
53053;DHT22;38934;52.690;6.184;2022-12-29T06:10:38;9.00;99.90
53053;DHT22;38934;52.690;6.184;2022-12-29T06:13:04;9.00;99.90
53053;DHT22;38934;52.690;6.184;2022-12-29T06:15:32;9.10;99.90
53053;DHT22;38934;52.690;6.184;2022-12-29T06:18:00;9.10;99.90
53053;DHT22;38934;52.690;6.184;2022-12-29T06:20:27;9.10;99.90
53053;DHT22;38934;52.690;6.184;2022-12-29T06:22:53;9.20;99.90
53053;DHT22;38934;52.690;6.184;2022-12-29T06:25:18;9.20;99.90
53053;DHT22;38934;52.690;6.184;2022-12-29T06:27:44;9.20;99.90
53053;DHT22;38934;52.690;6.184;2022-12-29T06:30:11;9.10;99.90
53053;DHT22;38934;52.690;6.184;2022-12-29T06:32:37;9.10;99.90
53053;DHT22;38934;52.690;6.184;2022-12-29T06:35:04;9.10;99.90
53053;DHT22;38934;52.690;6.184;2022-12-29T06:37:30;9.10;99.90
53053;DHT22;38934;52.690;6.184;2022-12-29T06:39:55;9.20;99.90
53053;DHT22;38934;52.690;6.184;2022-12-29T06:42:22;9.20;99.90
53053;DHT22;38934;52.690;6.184;2022-12-29T06:44:49;9.20;99.90
53053;DHT22;38934;52.690;6.184;2022-12-29T06:47:15;9.30;99.90
53053;DHT22;38934;52.690;6.184;2022-12-29T06:49:41;9.30;99.90
53053;DHT22;38934;52.690;6.184;2022-12-29T06:52:07;9.30;99.90
53053;DHT22;38934;52.690;6.184;2022-12-29T06:54:33;9.30;99.90
53053;DHT22;38934;52.690;6.184;2022-12-29T06:57:00;9.80;99.90
53053;DHT22;38934;52.690;6.184;2022-12-29T06:59:25;9.30;99.90
53053;DHT22;38934;52.690;6.184;2022-12-29T07:01:51;9.30;99.90
53053;DHT22;38934;52.690;6.184;2022-12-29T07:04:19;9.30;99.90
53053;DHT22;38934;52.690;6.184;2022-12-29T07:06:45;9.30;99.90
53053;DHT22;38934;52.690;6.184;2022-12-29T07:09:10;9.30;99.90
53053;DHT22;38934;52.690;6.184;2022-12-29T07:11:36;9.20;99.90
53053;DHT22;38934;52.690;6.184;2022-12-29T07:14:02;9.20;99.90
53053;DHT22;38934;52.690;6.184;2022-12-29T07:16:29;9.20;99.90
53053;DHT22;38934;52.690;6.184;2022-12-29T07:19:08;9.20;99.90
53053;DHT22;38934;52.690;6.184;2022-12-29T07:21:34;9.20;99.90
53053;DHT22;38934;52.690;6.184;2022-12-29T07:24:00;9.20;99.90
53053;DHT22;38934;52.690;6.184;2022-12-29T07:26:25;9.20;99.90
53053;DHT22;38934;52.690;6.184;2022-12-29T07:28:51;9.20;99.90
53053;DHT22;38934;52.690;6.184;2022-12-29T07:31:19;9.30;99.90
53053;DHT22;38934;52.690;6.184;2022-12-29T07:33:49;9.30;99.90
53053;DHT22;38934;52.690;6.184;2022-12-29T07:36:16;9.30;99.90
53053;DHT22;38934;52.690;6.184;2022-12-29T07:38:43;9.30;99.90
53053;DHT22;38934;52.690;6.184;2022-12-29T07:41:09;9.30;99.90
53053;DHT22;38934;52.690;6.184;2022-12-29T07:43:35;9.30;99.90
53053;DHT22;38934;52.690;6.184;2022-12-29T07:46:00;9.20;99.90
53053;DHT22;38934;52.690;6.184;2022-12-29T07:48:27;9.20;99.90
53053;DHT22;38934;52.690;6.184;2022-12-29T07:50:53;9.20;99.90
53053;DHT22;38934;52.690;6.184;2022-12-29T07:53:20;9.80;99.90
53053;DHT22;38934;52.690;6.184;2022-12-29T07:55:45;9.60;99.90
53053;DHT22;38934;52.690;6.184;2022-12-29T07:58:11;9.20;99.90
53053;DHT22;38934;52.690;6.184;2022-12-29T08:00:38;9.20;99.90
53053;DHT22;38934;52.690;6.184;2022-12-29T08:03:05;9.20;99.90
53053;DHT22;38934;52.690;6.184;2022-12-29T08:05:32;9.20;99.90
53053;DHT22;38934;52.690;6.184;2022-12-29T08:08:03;9.20;99.90
53053;DHT22;38934;52.690;6.184;2022-12-29T08:10:29;9.20;99.90
53053;DHT22;38934;52.690;6.184;2022-12-29T08:12:54;9.20;99.90
53053;DHT22;38934;52.690;6.184;2022-12-29T08:15:20;9.20;99.90
53053;DHT22;38934;52.690;6.184;2022-12-29T08:17:45;9.60;99.90
53053;DHT22;38934;52.690;6.184;2022-12-29T08:20:13;9.20;99.90
53053;DHT22;38934;52.690;6.184;2022-12-29T08:22:40;9.30;99.90
53053;DHT22;38934;52.690;6.184;2022-12-29T08:25:05;9.30;99.90
53053;DHT22;38934;52.690;6.184;2022-12-29T08:27:31;9.30;99.90
53053;DHT22;38934;52.690;6.184;2022-12-29T08:30:04;9.30;99.90
53053;DHT22;38934;52.690;6.184;2022-12-29T08:32:30;9.30;99.90
53053;DHT22;38934;52.690;6.184;2022-12-29T08:34:56;9.30;99.90
53053;DHT22;38934;52.690;6.184;2022-12-29T08:37:22;9.30;99.90
53053;DHT22;38934;52.690;6.184;2022-12-29T08:39:48;9.40;99.90
53053;DHT22;38934;52.690;6.184;2022-12-29T08:42:14;9.40;99.90
53053;DHT22;38934;52.690;6.184;2022-12-29T08:44:40;9.40;99.90
53053;DHT22;38934;52.690;6.184;2022-12-29T08:47:06;9.40;99.90
53053;DHT22;38934;52.690;6.184;2022-12-29T08:49:32;9.40;99.90
53053;DHT22;38934;52.690;6.184;2022-12-29T08:51:59;9.50;99.90
53053;DHT22;38934;52.690;6.184;2022-12-29T08:54:27;9.50;99.90
53053;DHT22;38934;52.690;6.184;2022-12-29T08:56:53;9.50;99.90
53053;DHT22;38934;52.690;6.184;2022-12-29T08:59:22;9.50;99.90
53053;DHT22;38934;52.690;6.184;2022-12-29T09:01:49;9.50;99.90
53053;DHT22;38934;52.690;6.184;2022-12-29T09:04:16;9.30;99.90
53053;DHT22;38934;52.690;6.184;2022-12-29T09:06:42;9.30;99.90
53053;DHT22;38934;52.690;6.184;2022-12-29T09:09:08;9.20;99.90
53053;DHT22;38934;52.690;6.184;2022-12-29T09:11:34;9.20;99.90
53053;DHT22;38934;52.690;6.184;2022-12-29T09:14:00;9.20;99.90
53053;DHT22;38934;52.690;6.184;2022-12-29T09:16:25;9.10;99.90
53053;DHT22;38934;52.690;6.184;2022-12-29T09:18:53;9.10;99.90
53053;DHT22;38934;52.690;6.184;2022-12-29T09:21:18;9.10;99.90
53053;DHT22;38934;52.690;6.184;2022-12-29T09:23:44;9.10;99.90
53053;DHT22;38934;52.690;6.184;2022-12-29T09:26:13;9.10;99.90
53053;DHT22;38934;52.690;6.184;2022-12-29T09:28:38;9.10;99.90
53053;DHT22;38934;52.690;6.184;2022-12-29T09:31:04;9.20;99.90
53053;DHT22;38934;52.690;6.184;2022-12-29T09:33:30;9.10;99.90
53053;DHT22;38934;52.690;6.184;2022-12-29T09:36:01;9.00;99.90
53053;DHT22;38934;52.690;6.184;2022-12-29T09:38:27;9.00;99.90
53053;DHT22;38934;52.690;6.184;2022-12-29T09:41:10;9.00;99.90
53053;DHT22;38934;52.690;6.184;2022-12-29T09:46:27;9.00;99.90
53053;DHT22;38934;52.690;6.184;2022-12-29T09:49:22;9.00;99.90
53053;DHT22;38934;52.690;6.184;2022-12-29T09:51:52;9.00;99.90
53053;DHT22;38934;52.690;6.184;2022-12-29T09:57:42;9.20;99.90
53053;DHT22;38934;52.690;6.184;2022-12-29T10:00:16;9.10;99.90
53053;DHT22;38934;52.690;6.184;2022-12-29T10:02:46;9.20;99.90
53053;DHT22;38934;52.690;6.184;2022-12-29T10:05:39;9.10;99.90
53053;DHT22;38934;52.690;6.184;2022-12-29T10:16:33;9.10;99.90
53053;DHT22;38934;52.690;6.184;2022-12-29T10:19:36;9.00;99.90
53053;DHT22;38934;52.690;6.184;2022-12-29T10:22:24;9.10;99.90
53053;DHT22;38934;52.690;6.184;2022-12-29T10:24:56;9.10;99.90
53053;DHT22;38934;52.690;6.184;2022-12-29T10:27:23;9.10;99.90
53053;DHT22;38934;52.690;6.184;2022-12-29T10:29:53;9.10;99.90
53053;DHT22;38934;52.690;6.184;2022-12-29T10:32:46;9.10;99.90
53053;DHT22;38934;52.690;6.184;2022-12-29T10:35:16;9.10;99.90
53053;DHT22;38934;52.690;6.184;2022-12-29T10:43:36;9.20;99.90
53053;DHT22;38934;52.690;6.184;2022-12-29T10:46:14;9.40;99.90
53053;DHT22;38934;52.690;6.184;2022-12-29T10:48:46;9.20;99.90
53053;DHT22;38934;52.690;6.184;2022-12-29T10:51:24;9.60;99.90
53053;DHT22;38934;52.690;6.184;2022-12-29T10:57:05;9.20;99.90
53053;DHT22;38934;52.690;6.184;2022-12-29T10:59:36;9.10;99.90
53053;DHT22;38934;52.690;6.184;2022-12-29T11:02:38;9.10;99.90
53053;DHT22;38934;52.690;6.184;2022-12-29T11:06:02;9.10;99.90
53053;DHT22;38934;52.690;6.184;2022-12-29T11:08:38;9.20;99.90
53053;DHT22;38934;52.690;6.184;2022-12-29T11:11:54;9.20;99.90
53053;DHT22;38934;52.690;6.184;2022-12-29T11:14:19;9.20;99.90
53053;DHT22;38934;52.690;6.184;2022-12-29T11:16:56;9.20;99.90
53053;DHT22;38934;52.690;6.184;2022-12-29T11:19:24;9.20;99.90
53053;DHT22;38934;52.690;6.184;2022-12-29T11:21:51;9.10;99.90
53053;DHT22;38934;52.690;6.184;2022-12-29T11:24:26;9.10;99.90
53053;DHT22;38934;52.690;6.184;2022-12-29T11:27:14;9.10;99.90
53053;DHT22;38934;52.690;6.184;2022-12-29T11:29:43;9.10;99.90
53053;DHT22;38934;52.690;6.184;2022-12-29T11:32:28;9.10;99.90
53053;DHT22;38934;52.690;6.184;2022-12-29T11:34:57;9.10;99.90
53053;DHT22;38934;52.690;6.184;2022-12-29T11:37:31;9.10;99.90
53053;DHT22;38934;52.690;6.184;2022-12-29T11:40:05;9.10;99.90
53053;DHT22;38934;52.690;6.184;2022-12-29T11:42:40;9.10;99.90
53053;DHT22;38934;52.690;6.184;2022-12-29T11:45:15;9.20;99.90
53053;DHT22;38934;52.690;6.184;2022-12-29T11:47:51;9.30;99.90
53053;DHT22;38934;52.690;6.184;2022-12-29T11:50:23;9.30;99.90
53053;DHT22;38934;52.690;6.184;2022-12-29T11:52:58;9.50;99.90
53053;DHT22;38934;52.690;6.184;2022-12-29T11:55:26;9.30;99.90
53053;DHT22;38934;52.690;6.184;2022-12-29T11:57:57;9.40;99.90
53053;DHT22;38934;52.690;6.184;2022-12-29T12:00:24;9.50;99.90
53053;DHT22;38934;52.690;6.184;2022-12-29T12:03:19;9.50;99.90
53053;DHT22;38934;52.690;6.184;2022-12-29T12:05:47;9.40;99.90
53053;DHT22;38934;52.690;6.184;2022-12-29T12:08:45;9.40;99.90
53053;DHT22;38934;52.690;6.184;2022-12-29T12:11:25;9.30;99.90
53053;DHT22;38934;52.690;6.184;2022-12-29T12:14:19;9.20;99.90
53053;DHT22;38934;52.690;6.184;2022-12-29T12:16:55;9.10;99.90
53053;DHT22;38934;52.690;6.184;2022-12-29T12:22:37;9.00;99.90
53053;DHT22;38934;52.690;6.184;2022-12-29T12:25:20;9.00;99.90
53053;DHT22;38934;52.690;6.184;2022-12-29T12:27:58;9.00;99.90
53053;DHT22;38934;52.690;6.184;2022-12-29T12:30:31;9.10;99.90
53053;DHT22;38934;52.690;6.184;2022-12-29T12:33:03;9.10;99.90
53053;DHT22;38934;52.690;6.184;2022-12-29T12:36:09;9.10;99.90
53053;DHT22;38934;52.690;6.184;2022-12-29T12:47:31;9.10;99.90
53053;DHT22;38934;52.690;6.184;2022-12-29T12:56:27;8.90;99.90
53053;DHT22;38934;52.690;6.184;2022-12-29T13:07:27;9.00;99.90
53053;DHT22;38934;52.690;6.184;2022-12-29T13:10:16;9.00;99.90
53053;DHT22;38934;52.690;6.184;2022-12-29T13:13:33;9.10;99.90
53053;DHT22;38934;52.690;6.184;2022-12-29T13:18:59;9.00;99.90
53053;DHT22;38934;52.690;6.184;2022-12-29T13:21:46;8.90;99.90
53053;DHT22;38934;52.690;6.184;2022-12-29T13:26:58;8.80;99.90
53053;DHT22;38934;52.690;6.184;2022-12-29T13:29:36;8.80;99.90
53053;DHT22;38934;52.690;6.184;2022-12-29T13:37:25;8.80;99.90
53053;DHT22;38934;52.690;6.184;2022-12-29T13:39:58;9.00;99.90
53053;DHT22;38934;52.690;6.184;2022-12-29T13:42:25;8.90;99.90
53053;DHT22;38934;52.690;6.184;2022-12-29T13:45:15;9.10;99.90
53053;DHT22;38934;52.690;6.184;2022-12-29T13:48:10;8.90;99.90
53053;DHT22;38934;52.690;6.184;2022-12-29T13:50:39;8.80;99.90
53053;DHT22;38934;52.690;6.184;2022-12-29T13:53:27;8.80;99.90
53053;DHT22;38934;52.690;6.184;2022-12-29T13:56:07;8.80;99.90
53053;DHT22;38934;52.690;6.184;2022-12-29T13:58:41;8.70;99.90
53053;DHT22;38934;52.690;6.184;2022-12-29T14:01:15;8.60;99.90
53053;DHT22;38934;52.690;6.184;2022-12-29T14:03:49;8.70;99.90
53053;DHT22;38934;52.690;6.184;2022-12-29T14:06:26;8.70;99.90
53053;DHT22;38934;52.690;6.184;2022-12-29T14:08:56;8.70;99.90
53053;DHT22;38934;52.690;6.184;2022-12-29T14:11:32;8.70;99.90
53053;DHT22;38934;52.690;6.184;2022-12-29T14:14:09;8.70;99.90
53053;DHT22;38934;52.690;6.184;2022-12-29T14:16:37;8.70;99.90
53053;DHT22;38934;52.690;6.184;2022-12-29T14:19:18;8.70;99.90
53053;DHT22;38934;52.690;6.184;2022-12-29T14:21:57;8.70;99.90
53053;DHT22;38934;52.690;6.184;2022-12-29T14:34:48;8.60;99.90
53053;DHT22;38934;52.690;6.184;2022-12-29T14:40:18;8.60;99.90
53053;DHT22;38934;52.690;6.184;2022-12-29T14:42:47;8.60;99.90
53053;DHT22;38934;52.690;6.184;2022-12-29T14:47:50;8.70;99.90
53053;DHT22;38934;52.690;6.184;2022-12-29T14:55:46;8.50;99.90
53053;DHT22;38934;52.690;6.184;2022-12-29T14:59:00;8.50;99.90
53053;DHT22;38934;52.690;6.184;2022-12-29T15:04:13;8.50;99.90
53053;DHT22;38934;52.690;6.184;2022-12-29T15:06:41;8.50;99.90
53053;DHT22;38934;52.690;6.184;2022-12-29T15:11:48;8.40;99.90
53053;DHT22;38934;52.690;6.184;2022-12-29T15:14:28;8.30;99.90
53053;DHT22;38934;52.690;6.184;2022-12-29T15:17:09;8.30;99.90
53053;DHT22;38934;52.690;6.184;2022-12-29T15:19:36;8.30;99.90
53053;DHT22;38934;52.690;6.184;2022-12-29T15:22:02;8.30;99.90
53053;DHT22;38934;52.690;6.184;2022-12-29T15:24:29;8.20;99.90
53053;DHT22;38934;52.690;6.184;2022-12-29T15:26:55;8.20;99.90
53053;DHT22;38934;52.690;6.184;2022-12-29T15:29:40;8.10;99.90
53053;DHT22;38934;52.690;6.184;2022-12-29T15:34:50;8.10;99.90
53053;DHT22;38934;52.690;6.184;2022-12-29T15:37:24;8.10;99.90
53053;DHT22;38934;52.690;6.184;2022-12-29T15:39:52;8.10;99.90
53053;DHT22;38934;52.690;6.184;2022-12-29T15:44:55;8.10;99.90
53053;DHT22;38934;52.690;6.184;2022-12-29T15:47:26;8.10;99.90
53053;DHT22;38934;52.690;6.184;2022-12-29T15:50:14;8.10;99.90
53053;DHT22;38934;52.690;6.184;2022-12-29T15:52:42;8.20;99.90
53053;DHT22;38934;52.690;6.184;2022-12-29T15:55:31;8.10;99.90
53053;DHT22;38934;52.690;6.184;2022-12-29T15:58:00;8.10;99.90
53053;DHT22;38934;52.690;6.184;2022-12-29T16:00:32;8.10;99.90
53053;DHT22;38934;52.690;6.184;2022-12-29T16:03:01;8.10;99.90
53053;DHT22;38934;52.690;6.184;2022-12-29T16:05:36;8.10;99.90
53053;DHT22;38934;52.690;6.184;2022-12-29T16:08:03;8.10;99.90
53053;DHT22;38934;52.690;6.184;2022-12-29T16:10:36;8.10;99.90
53053;DHT22;38934;52.690;6.184;2022-12-29T16:13:23;8.00;99.90
53053;DHT22;38934;52.690;6.184;2022-12-29T16:15:50;8.00;99.90
53053;DHT22;38934;52.690;6.184;2022-12-29T16:18:24;8.00;99.90
53053;DHT22;38934;52.690;6.184;2022-12-29T16:20:51;8.00;99.90
53053;DHT22;38934;52.690;6.184;2022-12-29T16:23:24;8.00;99.90
53053;DHT22;38934;52.690;6.184;2022-12-29T16:25:51;7.90;99.90
53053;DHT22;38934;52.690;6.184;2022-12-29T16:28:22;7.90;99.90
53053;DHT22;38934;52.690;6.184;2022-12-29T16:31:03;7.90;99.90
53053;DHT22;38934;52.690;6.184;2022-12-29T16:33:40;7.90;99.90
53053;DHT22;38934;52.690;6.184;2022-12-29T16:36:27;7.90;99.90
53053;DHT22;38934;52.690;6.184;2022-12-29T16:39:20;7.90;99.90
53053;DHT22;38934;52.690;6.184;2022-12-29T16:41:47;7.90;99.90
53053;DHT22;38934;52.690;6.184;2022-12-29T16:46:56;8.00;99.90
53053;DHT22;38934;52.690;6.184;2022-12-29T16:49:23;8.00;99.90
53053;DHT22;38934;52.690;6.184;2022-12-29T16:51:51;8.00;99.90
53053;DHT22;38934;52.690;6.184;2022-12-29T16:54:53;8.00;99.90
53053;DHT22;38934;52.690;6.184;2022-12-29T16:57:26;8.00;99.90
53053;DHT22;38934;52.690;6.184;2022-12-29T16:59:54;8.60;99.90
53053;DHT22;38934;52.690;6.184;2022-12-29T17:02:24;8.10;99.90
53053;DHT22;38934;52.690;6.184;2022-12-29T17:04:51;8.70;99.90
53053;DHT22;38934;52.690;6.184;2022-12-29T17:07:24;8.00;99.90
53053;DHT22;38934;52.690;6.184;2022-12-29T17:09:50;8.10;99.90
53053;DHT22;38934;52.690;6.184;2022-12-29T17:12:22;8.00;99.90
53053;DHT22;38934;52.690;6.184;2022-12-29T17:14:52;7.90;99.90
53053;DHT22;38934;52.690;6.184;2022-12-29T17:17:39;7.90;99.90
53053;DHT22;38934;52.690;6.184;2022-12-29T17:20:21;7.90;99.90
53053;DHT22;38934;52.690;6.184;2022-12-29T17:22:47;7.80;99.90
53053;DHT22;38934;52.690;6.184;2022-12-29T17:25:18;7.80;99.90
53053;DHT22;38934;52.690;6.184;2022-12-29T17:27:50;7.80;99.90
53053;DHT22;38934;52.690;6.184;2022-12-29T17:30:20;7.80;99.90
53053;DHT22;38934;52.690;6.184;2022-12-29T17:33:02;7.80;99.90
53053;DHT22;38934;52.690;6.184;2022-12-29T17:35:28;7.80;99.90
53053;DHT22;38934;52.690;6.184;2022-12-29T17:37:54;7.70;99.90
53053;DHT22;38934;52.690;6.184;2022-12-29T17:40:23;7.70;99.90
53053;DHT22;38934;52.690;6.184;2022-12-29T17:42:56;7.80;99.90
53053;DHT22;38934;52.690;6.184;2022-12-29T17:45:31;7.80;99.90
53053;DHT22;38934;52.690;6.184;2022-12-29T17:47:58;7.80;99.90
53053;DHT22;38934;52.690;6.184;2022-12-29T17:50:29;7.90;99.90
53053;DHT22;38934;52.690;6.184;2022-12-29T17:53:02;8.40;99.90
53053;DHT22;38934;52.690;6.184;2022-12-29T17:55:36;8.00;99.90
53053;DHT22;38934;52.690;6.184;2022-12-29T17:58:15;8.40;99.90
53053;DHT22;38934;52.690;6.184;2022-12-29T18:00:41;7.90;99.90
53053;DHT22;38934;52.690;6.184;2022-12-29T18:03:16;7.90;99.90
53053;DHT22;38934;52.690;6.184;2022-12-29T18:05:43;7.90;99.90
53053;DHT22;38934;52.690;6.184;2022-12-29T18:08:10;7.90;99.90
53053;DHT22;38934;52.690;6.184;2022-12-29T18:10:37;7.90;99.90
53053;DHT22;38934;52.690;6.184;2022-12-29T18:13:03;7.90;99.90
53053;DHT22;38934;52.690;6.184;2022-12-29T18:15:31;7.90;99.90
53053;DHT22;38934;52.690;6.184;2022-12-29T18:18:10;7.90;99.90
53053;DHT22;38934;52.690;6.184;2022-12-29T18:20:38;7.80;99.90
53053;DHT22;38934;52.690;6.184;2022-12-29T18:23:04;7.90;99.90
53053;DHT22;38934;52.690;6.184;2022-12-29T18:25:43;7.90;99.90
53053;DHT22;38934;52.690;6.184;2022-12-29T18:28:10;7.80;99.90